createdAt,value
2022-08-18T00:02:01.944Z,28.21
2022-08-18T00:04:35.665Z,28.86
2022-08-18T00:07:05.574Z,29.02
2022-08-18T00:09:35.301Z,28.88
2022-08-18T00:12:05.439Z,28.65
2022-08-18T00:14:33.553Z,28.73
2022-08-18T00:17:03.378Z,28.67
2022-08-18T00:19:46.094Z,28.81
2022-08-18T00:22:19.196Z,28.58
2022-08-18T00:24:51.527Z,28.08
2022-08-18T00:27:23.345Z,28.88
2022-08-18T00:29:53.252Z,28.86
2022-08-18T00:32:24.694Z,28.56
2022-08-18T00:34:53.693Z,29.09
2022-08-18T00:37:22.637Z,29.10
2022-08-18T00:39:52.361Z,28.84
2022-08-18T00:42:28.879Z,29.06
2022-08-18T00:45:02.349Z,28.95
2022-08-18T00:47:42.269Z,28.87
2022-08-18T00:50:16.990Z,28.86
2022-08-18T00:52:50.756Z,29.23
2022-08-18T00:55:19.704Z,29.68
2022-08-18T00:57:48.359Z,29.73
2022-08-18T01:00:16.888Z,29.65
2022-08-18T01:02:52.017Z,29.15
2022-08-18T01:05:23.266Z,29.38
2022-08-18T01:07:52.190Z,30.10
2022-08-18T01:10:23.019Z,29.82
2022-08-18T01:12:54.141Z,29.88
2022-08-18T01:15:28.033Z,29.69
2022-08-18T01:18:18.646Z,29.54
2022-08-18T01:21:11.679Z,29.61
2022-08-18T01:23:41.439Z,29.96
2022-08-18T01:26:09.536Z,30.38
2022-08-18T01:28:40.340Z,29.61
2022-08-18T01:31:09.351Z,29.67
2022-08-18T01:33:40.628Z,29.59
2022-08-18T01:36:16.759Z,29.63
2022-08-18T01:38:48.040Z,29.80
2022-08-18T01:41:26.676Z,30.56
2022-08-18T01:43:59.190Z,30.11
2022-08-18T01:46:28.390Z,30.59
2022-08-18T01:48:58.702Z,30.61
2022-08-18T01:51:39.615Z,30.96
2022-08-18T01:54:12.956Z,30.62
2022-08-18T01:56:42.467Z,31.19
2022-08-18T01:59:15.292Z,31.48
2022-08-18T02:01:48.731Z,31.30
2022-08-18T02:04:35.100Z,31.34
2022-08-18T02:07:07.083Z,31.12
2022-08-18T02:09:37.862Z,31.09
2022-08-18T02:12:07.936Z,31.39
2022-08-18T02:14:36.500Z,31.38
2022-08-18T02:17:07.836Z,31.31
2022-08-18T02:19:38.482Z,31.53
2022-08-18T02:22:08.012Z,31.12
2022-08-18T02:24:37.658Z,31.25
2022-08-18T02:27:06.223Z,31.73
2022-08-18T02:29:34.385Z,31.65
2022-08-18T02:32:02.895Z,31.51
2022-08-18T02:34:30.985Z,31.29
2022-08-18T02:37:00.397Z,31.14
2022-08-18T02:39:29.068Z,31.54
2022-08-18T02:41:58.937Z,31.00
2022-08-18T02:44:27.134Z,31.54
2022-08-18T02:46:56.172Z,31.46
2022-08-18T02:49:24.207Z,31.60
2022-08-18T02:51:52.820Z,31.55
2022-08-18T02:54:23.244Z,31.35
2022-08-18T02:56:52.322Z,31.24
2022-08-18T02:59:25.372Z,30.58
2022-08-18T03:01:55.090Z,31.10
2022-08-18T03:04:29.559Z,31.41
2022-08-18T03:07:00.401Z,31.11
2022-08-18T03:09:28.706Z,31.10
2022-08-18T03:11:57.166Z,31.25
2022-08-18T03:14:27.192Z,30.90
2022-08-18T03:16:55.578Z,31.32
2022-08-18T03:19:25.148Z,31.31
2022-08-18T03:21:55.175Z,31.44
2022-08-18T03:24:26.525Z,31.17
2022-08-18T03:26:56.942Z,31.16
2022-08-18T03:29:32.032Z,31.00
2022-08-18T03:32:01.612Z,31.56
2022-08-18T03:34:30.366Z,31.16
2022-08-18T03:36:58.558Z,30.94
2022-08-18T03:39:28.025Z,31.51
2022-08-18T03:42:01.058Z,31.28
2022-08-18T03:44:36.796Z,31.06
2022-08-18T03:47:07.304Z,31.15
2022-08-18T03:49:35.837Z,31.25
2022-08-18T03:52:05.725Z,30.99
2022-08-18T03:54:33.988Z,30.74
2022-08-18T03:57:02.346Z,30.92
2022-08-18T03:59:33.365Z,30.35
2022-08-18T04:02:04.804Z,30.19
2022-08-18T04:04:33.566Z,30.76
2022-08-18T04:07:07.967Z,29.81
2022-08-18T04:09:37.500Z,30.42
2022-08-18T04:12:10.505Z,30.27
2022-08-18T04:14:48.822Z,29.84
2022-08-18T04:17:18.499Z,30.09
2022-08-18T04:19:47.043Z,30.05
2022-08-18T04:22:17.653Z,30.05
2022-08-18T04:24:47.299Z,29.45
2022-08-18T04:27:18.310Z,29.07
2022-08-18T04:29:47.857Z,28.12
2022-08-18T04:32:16.018Z,28.29
2022-08-18T04:34:44.585Z,28.02
2022-08-18T04:37:14.033Z,27.87
2022-08-18T04:39:42.613Z,27.48
2022-08-18T04:42:11.458Z,27.70
2022-08-18T04:44:39.661Z,27.17
2022-08-18T04:47:09.193Z,26.44
2022-08-18T04:49:38.089Z,26.80
2022-08-18T04:52:39.314Z,25.95
2022-08-18T04:55:09.791Z,26.18
2022-08-18T04:57:37.969Z,26.39
2022-08-18T05:00:08.452Z,26.24
2022-08-18T05:02:39.123Z,25.82
2022-08-18T05:05:08.376Z,25.64
2022-08-18T05:07:36.680Z,25.47
2022-08-18T05:10:05.651Z,24.95
2022-08-18T05:12:33.858Z,25.07
2022-08-18T05:15:02.373Z,24.95
2022-08-18T05:17:31.310Z,24.71
2022-08-18T05:20:02.080Z,23.92
2022-08-18T05:22:31.754Z,23.78
2022-08-18T05:25:01.098Z,22.69
2022-08-18T05:27:34.124Z,21.18
2022-08-18T05:30:02.616Z,21.32
2022-08-18T05:32:47.365Z,20.34
2022-08-18T05:35:22.534Z,20.45
2022-08-18T05:37:59.070Z,20.96
2022-08-18T05:40:28.872Z,21.79
2022-08-18T05:42:57.970Z,21.73
2022-08-18T05:45:27.024Z,22.09
2022-08-18T05:47:59.514Z,21.47
2022-08-18T05:50:30.168Z,21.21
2022-08-18T05:53:00.577Z,20.87
2022-08-18T05:55:49.910Z,20.17
2022-08-18T05:58:21.005Z,19.50
2022-08-18T06:00:57.544Z,17.86
2022-08-18T06:03:31.413Z,18.01
2022-08-18T06:06:19.682Z,18.27
2022-08-18T06:08:53.997Z,18.00
2022-08-18T06:11:22.948Z,18.39
2022-08-18T06:13:57.770Z,18.52
2022-08-18T06:16:50.768Z,17.98
2022-08-18T06:19:29.820Z,17.92
2022-08-18T06:22:04.744Z,17.90
2022-08-18T06:24:37.589Z,17.77
2022-08-18T06:27:12.247Z,17.43
2022-08-18T06:29:51.218Z,16.94
2022-08-18T06:32:28.301Z,16.41
2022-08-18T06:35:06.730Z,15.78
2022-08-18T06:38:00.471Z,15.80
2022-08-18T06:40:28.967Z,16.60
2022-08-18T06:42:59.741Z,16.58
2022-08-18T06:45:35.913Z,15.96
2022-08-18T06:48:15.372Z,15.87
2022-08-18T06:50:52.013Z,15.45
2022-08-18T06:53:27.890Z,15.73
2022-08-18T06:55:57.293Z,14.59
2022-08-18T06:58:30.179Z,13.84
2022-08-18T07:01:02.485Z,13.83
2022-08-18T07:03:46.008Z,12.87
2022-08-18T07:06:27.739Z,13.06
2022-08-18T07:09:21.781Z,13.15
2022-08-18T07:12:00.404Z,13.34
2022-08-18T07:14:28.854Z,14.03
2022-08-18T07:17:11.333Z,13.52
2022-08-18T07:19:39.527Z,13.14
2022-08-18T07:22:11.708Z,13.04
2022-08-18T07:24:44.265Z,12.87
2022-08-18T07:27:15.617Z,13.04
2022-08-18T07:30:00.575Z,13.29
2022-08-18T07:32:32.263Z,13.50
2022-08-18T07:35:02.134Z,13.10
2022-08-18T07:37:33.335Z,12.97
2022-08-18T07:40:07.118Z,12.88
2022-08-18T07:43:00.855Z,12.54
2022-08-18T07:45:32.889Z,12.34
2022-08-18T07:48:20.780Z,11.93
2022-08-18T07:51:03.131Z,12.16
2022-08-18T07:53:42.842Z,11.58
2022-08-18T07:56:39.969Z,11.46
2022-08-18T07:59:14.170Z,11.74
2022-08-18T08:01:45.680Z,11.51
2022-08-18T08:04:25.645Z,11.18
2022-08-18T08:07:22.807Z,10.88
2022-08-18T08:09:56.324Z,10.21
2022-08-18T08:12:34.780Z,9.37
2022-08-18T08:15:10.760Z,9.38
2022-08-18T08:17:43.996Z,8.51
2022-08-18T08:20:23.830Z,8.48
2022-08-18T08:23:09.474Z,8.92
2022-08-18T08:25:48.215Z,8.78
2022-08-18T08:28:26.025Z,8.82
2022-08-18T08:31:25.735Z,7.71
2022-08-18T08:33:52.984Z,6.61
2022-08-18T08:36:26.516Z,6.93
2022-08-18T08:38:57.351Z,7.25
2022-08-18T08:41:31.399Z,7.37
2022-08-18T08:44:04.910Z,7.69
2022-08-18T08:46:38.733Z,8.17
2022-08-18T08:49:10.026Z,8.35
2022-08-18T08:51:41.725Z,8.18
2022-08-18T08:54:16.356Z,8.04
2022-08-18T08:56:47.979Z,7.99
2022-08-18T08:59:21.808Z,7.73
2022-08-18T09:01:58.498Z,7.83
2022-08-18T09:04:37.029Z,7.12
2022-08-18T09:07:14.737Z,6.40
2022-08-18T09:10:11.266Z,5.79
2022-08-18T09:13:02.073Z,5.14
2022-08-18T09:15:42.838Z,5.05
2022-08-18T09:18:26.231Z,5.51
2022-08-18T09:21:16.129Z,5.18
2022-08-18T09:23:46.880Z,4.79
2022-08-18T09:26:27.605Z,4.71
2022-08-18T09:28:59.146Z,4.51
2022-08-18T09:31:31.872Z,4.25
2022-08-18T09:34:11.170Z,4.70
2022-08-18T09:36:49.047Z,4.00
2022-08-18T09:39:41.897Z,3.36
2022-08-18T09:42:14.464Z,2.41
2022-08-18T09:45:11.501Z,3.03
2022-08-18T09:48:02.727Z,2.54
2022-08-18T09:50:38.739Z,2.77
2022-08-18T09:53:20.896Z,1.50
2022-08-18T09:56:01.607Z,1.39
2022-08-18T09:58:55.565Z,2.54
2022-08-18T10:01:40.201Z,3.29
2022-08-18T10:04:32.973Z,3.71
2022-08-18T10:07:23.469Z,4.59
2022-08-18T10:11:00.202Z,4.84
2022-08-18T10:13:09.251Z,3.77
2022-08-18T10:15:47.934Z,4.66
2022-08-18T10:18:43.190Z,4.95
2022-08-18T10:21:20.994Z,5.09
2022-08-18T10:24:14.606Z,5.61
2022-08-18T10:27:00.705Z,6.22
2022-08-18T10:29:47.926Z,7.43
2022-08-18T10:32:37.245Z,6.95
2022-08-18T10:35:07.332Z,6.14
2022-08-18T10:37:40.367Z,6.55
2022-08-18T10:40:21.246Z,6.59
2022-08-18T10:42:53.516Z,5.70
2022-08-18T10:45:26.180Z,7.37
2022-08-18T10:48:11.929Z,8.43
2022-08-18T10:50:52.906Z,8.68
2022-08-18T10:53:44.447Z,8.24
2022-08-18T10:56:26.736Z,9.09
2022-08-18T10:59:16.140Z,9.34
2022-08-18T11:02:03.673Z,9.07
2022-08-18T11:04:38.465Z,9.37
2022-08-18T11:07:11.227Z,9.14
2022-08-18T11:09:42.181Z,8.35
2022-08-18T11:12:42.780Z,7.42
2022-08-18T11:15:22.324Z,7.07
2022-08-18T11:18:10.436Z,6.25
2022-08-18T11:20:43.007Z,7.24
2022-08-18T11:23:14.994Z,7.30
2022-08-18T11:25:45.930Z,7.63
2022-08-18T11:28:18.737Z,8.30
2022-08-18T11:30:49.095Z,8.16
2022-08-18T11:33:22.726Z,8.07
2022-08-18T11:35:54.601Z,8.64
2022-08-18T11:41:17.631Z,10.06
2022-08-18T11:43:47.565Z,10.69
2022-08-18T11:46:27.931Z,11.76
2022-08-18T11:48:59.642Z,12.94
2022-08-18T11:51:29.673Z,13.04
2022-08-18T11:54:00.938Z,13.30
2022-08-18T11:56:37.619Z,13.37
2022-08-18T11:59:07.954Z,14.20
2022-08-18T12:01:42.273Z,14.07
2022-08-18T12:04:32.173Z,13.92
2022-08-18T12:10:17.299Z,13.64
2022-08-18T12:12:52.094Z,14.27
2022-08-18T12:15:29.540Z,13.65
2022-08-18T12:18:19.051Z,13.69
2022-08-18T12:20:58.319Z,13.79
2022-08-18T12:23:28.084Z,14.74
2022-08-18T12:29:01.390Z,15.08
2022-08-18T12:31:42.693Z,14.87
2022-08-18T12:34:17.974Z,15.11
2022-08-18T12:36:54.653Z,14.53
2022-08-18T12:39:23.077Z,14.90
2022-08-18T12:41:52.517Z,15.21
2022-08-18T12:44:22.837Z,15.11
2022-08-18T12:46:56.106Z,16.59
2022-08-18T12:49:26.501Z,15.35
2022-08-18T12:51:55.814Z,15.65
2022-08-18T12:54:25.311Z,16.90
2022-08-18T12:56:56.067Z,15.89
2022-08-18T12:59:26.434Z,16.31
2022-08-18T13:02:01.642Z,15.74
2022-08-18T13:04:30.859Z,15.92
2022-08-18T13:07:04.743Z,15.92
2022-08-18T13:09:52.848Z,15.41
2022-08-18T13:12:22.304Z,15.38
2022-08-18T13:14:55.240Z,15.07
2022-08-18T13:17:29.490Z,14.65
2022-08-18T13:20:04.841Z,14.54
2022-08-18T13:22:33.375Z,13.91
2022-08-18T13:25:03.981Z,14.40
2022-08-18T13:27:36.056Z,14.62
2022-08-18T13:30:16.630Z,14.33
2022-08-18T13:33:02.662Z,14.18
2022-08-18T13:35:48.318Z,14.16
2022-08-18T13:38:27.481Z,14.09
2022-08-18T13:40:58.742Z,13.92
2022-08-18T13:43:32.188Z,13.40
2022-08-18T13:46:01.838Z,13.93
2022-08-18T13:48:31.623Z,14.48
2022-08-18T13:51:01.805Z,14.25
2022-08-18T13:53:31.319Z,14.15
2022-08-18T13:56:00.291Z,14.24
2022-08-18T13:58:29.613Z,14.42
2022-08-18T14:01:16.266Z,14.44
2022-08-18T14:03:50.001Z,13.95
2022-08-18T14:06:22.731Z,13.49
2022-08-18T14:08:52.865Z,13.34
2022-08-18T14:11:25.744Z,12.96
2022-08-18T14:13:55.148Z,13.38
2022-08-18T14:16:23.550Z,13.65
2022-08-18T14:19:14.204Z,13.56
2022-08-18T14:22:03.609Z,13.41
2022-08-18T14:24:50.525Z,13.48
2022-08-18T14:27:20.662Z,13.64
2022-08-18T14:29:50.414Z,13.54
2022-08-18T14:32:28.394Z,13.09
2022-08-18T14:35:13.606Z,13.76
2022-08-18T14:37:57.278Z,14.22
2022-08-18T14:40:25.472Z,13.92
2022-08-18T14:42:55.771Z,13.92
2022-08-18T14:45:31.728Z,15.04
2022-08-18T14:48:06.552Z,14.72
2022-08-18T14:50:38.165Z,14.67
2022-08-18T14:53:06.648Z,14.97
2022-08-18T14:55:36.005Z,14.61
2022-08-18T14:58:07.298Z,15.10
2022-08-18T15:00:53.760Z,15.29
2022-08-18T15:03:28.102Z,14.77
2022-08-18T15:06:04.894Z,14.70
2022-08-18T15:08:36.171Z,14.91
2022-08-18T15:11:06.232Z,14.62
2022-08-18T15:13:41.836Z,14.80
2022-08-18T15:16:13.779Z,14.56
2022-08-18T15:18:42.423Z,14.62
2022-08-18T15:21:35.451Z,14.69
2022-08-18T15:24:25.927Z,14.38
2022-08-18T15:26:56.831Z,14.96
2022-08-18T15:29:31.897Z,14.97
2022-08-18T15:32:02.157Z,15.12
2022-08-18T15:34:46.640Z,15.23
2022-08-18T15:37:19.879Z,14.97
2022-08-18T15:39:51.706Z,14.92
2022-08-18T15:42:24.264Z,15.06
2022-08-18T15:44:53.850Z,15.12
2022-08-18T15:47:25.090Z,15.07
2022-08-18T15:49:55.074Z,15.32
2022-08-18T15:52:26.254Z,15.18
2022-08-18T15:54:58.353Z,15.28
2022-08-18T15:57:38.902Z,15.58
2022-08-18T16:00:12.271Z,15.18
2022-08-18T16:02:44.711Z,15.08
2022-08-18T16:05:18.127Z,15.89
2022-08-18T16:07:47.801Z,15.52
2022-08-18T16:10:17.553Z,15.47
2022-08-18T16:12:46.427Z,15.79
2022-08-18T16:15:19.127Z,16.05
2022-08-18T16:17:48.580Z,16.49
2022-08-18T16:20:17.995Z,16.59
2022-08-18T16:22:47.737Z,16.15
2022-08-18T16:25:16.686Z,16.24
2022-08-18T16:27:45.530Z,16.26
2022-08-18T16:30:16.730Z,16.31
2022-08-18T16:32:45.230Z,16.64
2022-08-18T16:35:13.329Z,16.28
2022-08-18T16:37:42.121Z,16.18
2022-08-18T16:40:13.158Z,15.89
2022-08-18T16:42:41.587Z,16.51
2022-08-18T16:45:10.188Z,16.51
2022-08-18T16:47:41.299Z,16.83
2022-08-18T16:50:11.510Z,16.93
2022-08-18T16:52:40.385Z,16.93
2022-08-18T16:55:11.876Z,16.72
2022-08-18T16:57:57.615Z,16.50
2022-08-18T17:00:44.461Z,16.47
2022-08-18T17:03:30.955Z,17.36
2022-08-18T17:06:03.370Z,17.02
2022-08-18T17:08:34.316Z,17.11
2022-08-18T17:11:04.647Z,16.93
2022-08-18T17:13:33.487Z,17.55
2022-08-18T17:16:01.571Z,17.40
2022-08-18T17:18:30.640Z,17.43
2022-08-18T17:21:02.331Z,17.76
2022-08-18T17:23:30.934Z,17.72
2022-08-18T17:25:59.962Z,18.24
2022-08-18T17:28:39.896Z,17.45
2022-08-18T17:31:15.668Z,18.00
2022-08-18T17:33:46.366Z,17.96
2022-08-18T17:36:19.939Z,18.29
2022-08-18T17:38:53.027Z,17.96
2022-08-18T17:41:22.529Z,18.39
2022-08-18T17:43:53.458Z,18.90
2022-08-18T17:46:27.563Z,18.78
2022-08-18T17:48:58.630Z,18.94
2022-08-18T17:51:39.571Z,18.74
2022-08-18T17:54:19.273Z,19.11
2022-08-18T17:56:52.727Z,19.03
2022-08-18T17:59:45.603Z,19.32
2022-08-18T18:02:28.874Z,19.47
2022-08-18T18:04:59.097Z,19.98
2022-08-18T18:07:29.583Z,19.67
2022-08-18T18:10:01.338Z,19.21
2022-08-18T18:12:32.473Z,19.15
2022-08-18T18:15:03.276Z,19.58
2022-08-18T18:17:32.735Z,18.96
2022-08-18T18:20:15.671Z,19.15
2022-08-18T18:22:45.216Z,19.63
2022-08-18T18:25:14.509Z,20.41
2022-08-18T18:27:47.214Z,20.55
2022-08-18T18:30:27.878Z,19.47
2022-08-18T18:33:00.141Z,20.06
2022-08-18T18:35:31.001Z,20.22
2022-08-18T18:38:04.221Z,20.12
2022-08-18T18:40:35.055Z,20.84
2022-08-18T18:43:21.638Z,20.14
2022-08-18T18:46:18.588Z,20.50
2022-08-18T18:48:52.688Z,20.57
2022-08-18T18:51:33.630Z,20.71
2022-08-18T18:54:10.880Z,20.46
2022-08-18T18:56:42.521Z,21.12
2022-08-18T18:59:17.773Z,21.07
2022-08-18T19:01:58.854Z,20.87
2022-08-18T19:04:31.855Z,21.70
2022-08-18T19:07:05.151Z,21.33
2022-08-18T19:09:38.221Z,21.68
2022-08-18T19:12:15.625Z,21.47
2022-08-18T19:14:59.622Z,21.32
2022-08-18T19:17:35.679Z,21.36
2022-08-18T19:20:08.390Z,22.36
2022-08-18T19:22:41.911Z,21.94
2022-08-18T19:25:17.150Z,22.03
2022-08-18T19:27:49.721Z,22.12
2022-08-18T19:30:20.029Z,21.99
2022-08-18T19:32:52.715Z,21.31
2022-08-18T19:35:24.575Z,22.19
2022-08-18T19:38:10.858Z,22.30
2022-08-18T19:40:45.580Z,22.73
2022-08-18T19:43:29.949Z,22.82
2022-08-18T19:46:10.805Z,23.11
2022-08-18T19:48:41.849Z,22.85
2022-08-18T19:51:15.786Z,23.67
2022-08-18T19:53:57.293Z,23.54
2022-08-18T19:56:38.931Z,22.99
2022-08-18T19:59:24.595Z,23.35
2022-08-18T20:02:01.223Z,23.56
2022-08-18T20:04:44.713Z,23.96
2022-08-18T20:07:25.575Z,23.90
2022-08-18T20:10:17.556Z,23.28
2022-08-18T20:12:57.919Z,23.05
2022-08-18T20:15:28.617Z,23.45
2022-08-18T20:18:09.584Z,23.35
2022-08-18T20:20:39.724Z,23.30
2022-08-18T20:23:32.321Z,23.09
2022-08-18T20:26:00.744Z,23.99
2022-08-18T20:28:40.735Z,23.39
2022-08-18T20:31:15.097Z,23.83
2022-08-18T20:33:47.343Z,23.86
2022-08-18T20:36:28.115Z,23.50
2022-08-18T20:38:58.205Z,24.16
2022-08-18T20:41:33.370Z,23.65
2022-08-18T20:44:49.700Z,23.89
2022-08-18T20:47:32.695Z,24.17
2022-08-18T20:50:23.176Z,23.91
2022-08-18T20:53:01.414Z,24.22
2022-08-18T20:55:36.378Z,24.16
2022-08-18T20:58:10.903Z,23.87
2022-08-18T21:00:43.058Z,24.60
2022-08-18T21:03:15.002Z,24.83
2022-08-18T21:05:45.080Z,24.73
2022-08-18T21:08:29.204Z,24.30
2022-08-18T21:10:59.717Z,24.56
2022-08-18T21:13:30.812Z,24.54
2022-08-18T21:16:00.136Z,25.34
2022-08-18T21:18:29.307Z,24.82
2022-08-18T21:20:58.965Z,25.12
2022-08-18T21:23:30.927Z,23.91
2022-08-18T21:26:06.379Z,24.38
2022-08-18T21:28:37.870Z,24.53
2022-08-18T21:31:43.008Z,24.80
2022-08-18T21:33:57.956Z,24.64
2022-08-18T21:36:32.356Z,25.19
2022-08-18T21:39:07.479Z,24.87
2022-08-18T21:41:42.389Z,24.49
2022-08-18T21:44:16.374Z,24.45
2022-08-18T21:46:45.695Z,24.92
2022-08-18T21:49:14.457Z,25.23
2022-08-18T21:51:47.656Z,24.48
2022-08-18T21:54:20.521Z,24.14
2022-08-18T21:56:49.119Z,24.81
2022-08-18T21:59:19.595Z,24.41
2022-08-18T22:01:50.043Z,24.48
2022-08-18T22:04:27.556Z,23.77
2022-08-18T22:06:57.524Z,24.81
2022-08-18T22:09:49.993Z,24.38
2022-08-18T22:12:43.766Z,24.55
2022-08-18T22:15:16.403Z,24.87
2022-08-18T22:17:52.129Z,24.44
2022-08-18T22:20:52.546Z,24.76
2022-08-18T22:23:50.582Z,24.60
2022-08-18T22:26:22.704Z,25.01
2022-08-18T22:28:55.263Z,24.89
2022-08-18T22:31:25.873Z,24.50
2022-08-18T22:33:54.989Z,24.62
2022-08-18T22:36:25.826Z,24.43
2022-08-18T22:38:54.162Z,24.82
2022-08-18T22:41:24.017Z,24.50
2022-08-18T22:43:54.925Z,24.97
2022-08-18T22:46:25.089Z,24.83
2022-08-18T22:48:54.320Z,25.29
2022-08-18T22:51:24.116Z,25.06
2022-08-18T22:53:52.666Z,25.63
2022-08-18T22:56:34.630Z,25.50
2022-08-18T22:59:13.831Z,25.37
2022-08-18T23:01:46.142Z,25.04
2022-08-18T23:04:16.382Z,25.08
2022-08-18T23:06:52.173Z,25.42
2022-08-18T23:09:23.828Z,24.88
2022-08-18T23:11:52.581Z,24.77
2022-08-18T23:14:22.372Z,24.98
2022-08-18T23:16:51.210Z,25.36
2022-08-18T23:19:21.830Z,25.08
2022-08-18T23:21:51.907Z,25.29
2022-08-18T23:24:21.111Z,25.31
2022-08-18T23:26:50.084Z,25.42
2022-08-18T23:29:19.925Z,25.28
2022-08-18T23:31:50.842Z,24.99
2022-08-18T23:34:19.911Z,24.10
2022-08-18T23:36:54.012Z,24.75
2022-08-18T23:39:22.888Z,25.76
2022-08-18T23:41:51.715Z,25.74
2022-08-18T23:44:20.003Z,25.56
2022-08-18T23:46:53.933Z,25.86
2022-08-18T23:49:22.033Z,26.50
2022-08-18T23:51:55.037Z,26.84
2022-08-18T23:54:25.587Z,26.87
2022-08-18T23:56:53.910Z,27.04
2022-08-18T23:59:23.665Z,26.81
